sensor_id;sensor_type;location;lat;lon;timestamp;temperature;humidity
67273;DHT22;54190;49.770;9.250;2024-03-07T00:01:23;5.70;99.90
67273;DHT22;54190;49.770;9.250;2024-03-07T00:03:52;5.60;99.90
67273;DHT22;54190;49.770;9.250;2024-03-07T00:06:17;5.50;99.90
67273;DHT22;54190;49.770;9.250;2024-03-07T00:08:43;5.50;99.90
67273;DHT22;54190;49.770;9.250;2024-03-07T00:11:08;5.40;99.90
67273;DHT22;54190;49.770;9.250;2024-03-07T00:13:35;5.40;99.90
67273;DHT22;54190;49.770;9.250;2024-03-07T00:16:02;5.40;99.90
67273;DHT22;54190;49.770;9.250;2024-03-07T00:18:29;5.30;99.90
67273;DHT22;54190;49.770;9.250;2024-03-07T00:20:55;5.30;99.90
67273;DHT22;54190;49.770;9.250;2024-03-07T00:23:21;5.30;99.90
67273;DHT22;54190;49.770;9.250;2024-03-07T00:25:46;5.20;99.90
67273;DHT22;54190;49.770;9.250;2024-03-07T00:28:15;5.20;99.90
67273;DHT22;54190;49.770;9.250;2024-03-07T00:30:43;5.10;99.90
67273;DHT22;54190;49.770;9.250;2024-03-07T00:33:11;5.10;99.90
67273;DHT22;54190;49.770;9.250;2024-03-07T00:35:37;5.00;99.90
67273;DHT22;54190;49.770;9.250;2024-03-07T00:38:03;5.00;99.90
67273;DHT22;54190;49.770;9.250;2024-03-07T00:40:30;5.00;99.90
67273;DHT22;54190;49.770;9.250;2024-03-07T00:42:56;5.00;99.90
67273;DHT22;54190;49.770;9.250;2024-03-07T00:45:22;4.90;99.90
67273;DHT22;54190;49.770;9.250;2024-03-07T00:47:48;4.90;99.90
67273;DHT22;54190;49.770;9.250;2024-03-07T00:50:14;4.80;99.90
67273;DHT22;54190;49.770;9.250;2024-03-07T00:52:40;4.80;99.90
67273;DHT22;54190;49.770;9.250;2024-03-07T00:55:06;4.70;99.90
67273;DHT22;54190;49.770;9.250;2024-03-07T00:57:35;4.70;99.90
67273;DHT22;54190;49.770;9.250;2024-03-07T01:00:02;4.60;99.90
67273;DHT22;54190;49.770;9.250;2024-03-07T01:02:29;4.70;99.90
67273;DHT22;54190;49.770;9.250;2024-03-07T01:04:55;4.70;99.90
67273;DHT22;54190;49.770;9.250;2024-03-07T01:07:20;4.60;99.90
67273;DHT22;54190;49.770;9.250;2024-03-07T01:09:47;4.50;99.90
67273;DHT22;54190;49.770;9.250;2024-03-07T01:12:13;4.50;99.90
67273;DHT22;54190;49.770;9.250;2024-03-07T01:14:39;4.50;99.90
67273;DHT22;54190;49.770;9.250;2024-03-07T01:17:04;4.50;99.90
67273;DHT22;54190;49.770;9.250;2024-03-07T01:19:33;4.50;99.90
67273;DHT22;54190;49.770;9.250;2024-03-07T01:21:59;4.40;99.90
67273;DHT22;54190;49.770;9.250;2024-03-07T01:24:24;4.40;99.90
67273;DHT22;54190;49.770;9.250;2024-03-07T01:26:50;4.40;99.90
67273;DHT22;54190;49.770;9.250;2024-03-07T01:29:16;4.40;99.90
67273;DHT22;54190;49.770;9.250;2024-03-07T01:31:41;4.40;99.90
67273;DHT22;54190;49.770;9.250;2024-03-07T01:34:08;4.40;99.90
67273;DHT22;54190;49.770;9.250;2024-03-07T01:36:33;4.40;99.90
67273;DHT22;54190;49.770;9.250;2024-03-07T01:38:59;4.40;99.90
67273;DHT22;54190;49.770;9.250;2024-03-07T01:41:25;4.40;99.90
67273;DHT22;54190;49.770;9.250;2024-03-07T01:43:50;4.40;99.90
67273;DHT22;54190;49.770;9.250;2024-03-07T01:46:16;4.40;99.90
67273;DHT22;54190;49.770;9.250;2024-03-07T01:48:42;4.40;99.90
67273;DHT22;54190;49.770;9.250;2024-03-07T01:51:07;4.30;99.90
67273;DHT22;54190;49.770;9.250;2024-03-07T01:53:34;4.20;99.90
67273;DHT22;54190;49.770;9.250;2024-03-07T01:56:01;4.20;99.90
67273;DHT22;54190;49.770;9.250;2024-03-07T01:58:29;4.10;99.90
67273;DHT22;54190;49.770;9.250;2024-03-07T02:00:56;4.10;99.90
67273;DHT22;54190;49.770;9.250;2024-03-07T02:03:21;4.00;99.90
67273;DHT22;54190;49.770;9.250;2024-03-07T02:05:47;3.90;99.90
67273;DHT22;54190;49.770;9.250;2024-03-07T02:08:13;3.90;99.90
67273;DHT22;54190;49.770;9.250;2024-03-07T02:10:40;3.90;99.90
67273;DHT22;54190;49.770;9.250;2024-03-07T02:13:06;3.80;99.90
67273;DHT22;54190;49.770;9.250;2024-03-07T02:15:32;3.80;99.90
67273;DHT22;54190;49.770;9.250;2024-03-07T02:17:58;3.80;99.90
67273;DHT22;54190;49.770;9.250;2024-03-07T02:20:23;3.70;99.90
67273;DHT22;54190;49.770;9.250;2024-03-07T02:22:49;3.60;99.90
67273;DHT22;54190;49.770;9.250;2024-03-07T02:25:16;3.60;99.90
67273;DHT22;54190;49.770;9.250;2024-03-07T02:27:42;3.60;99.90
67273;DHT22;54190;49.770;9.250;2024-03-07T02:30:08;3.50;99.90
67273;DHT22;54190;49.770;9.250;2024-03-07T02:32:35;3.50;99.90
67273;DHT22;54190;49.770;9.250;2024-03-07T02:35:03;3.50;99.90
67273;DHT22;54190;49.770;9.250;2024-03-07T02:37:29;3.40;99.90
67273;DHT22;54190;49.770;9.250;2024-03-07T02:39:54;3.30;99.90
67273;DHT22;54190;49.770;9.250;2024-03-07T02:42:20;3.20;99.90
67273;DHT22;54190;49.770;9.250;2024-03-07T02:44:46;3.20;99.90
67273;DHT22;54190;49.770;9.250;2024-03-07T02:47:12;3.10;99.90
67273;DHT22;54190;49.770;9.250;2024-03-07T02:49:37;3.00;99.90
67273;DHT22;54190;49.770;9.250;2024-03-07T02:52:03;3.00;99.90
67273;DHT22;54190;49.770;9.250;2024-03-07T02:54:33;2.90;99.90
67273;DHT22;54190;49.770;9.250;2024-03-07T02:56:59;2.80;99.90
67273;DHT22;54190;49.770;9.250;2024-03-07T02:59:24;2.70;99.90
67273;DHT22;54190;49.770;9.250;2024-03-07T03:01:50;2.60;99.90
67273;DHT22;54190;49.770;9.250;2024-03-07T03:04:16;2.70;99.90
67273;DHT22;54190;49.770;9.250;2024-03-07T03:06:43;2.70;99.90
67273;DHT22;54190;49.770;9.250;2024-03-07T03:09:09;2.50;99.90
67273;DHT22;54190;49.770;9.250;2024-03-07T03:11:39;2.50;99.90
67273;DHT22;54190;49.770;9.250;2024-03-07T03:14:04;2.50;99.90
67273;DHT22;54190;49.770;9.250;2024-03-07T03:16:30;2.50;99.90
67273;DHT22;54190;49.770;9.250;2024-03-07T03:18:56;2.40;99.90
67273;DHT22;54190;49.770;9.250;2024-03-07T03:21:23;2.40;99.90
67273;DHT22;54190;49.770;9.250;2024-03-07T03:23:48;2.40;99.90
67273;DHT22;54190;49.770;9.250;2024-03-07T03:26:14;2.40;99.90
67273;DHT22;54190;49.770;9.250;2024-03-07T03:28:41;2.30;99.90
67273;DHT22;54190;49.770;9.250;2024-03-07T03:31:07;2.30;99.90
67273;DHT22;54190;49.770;9.250;2024-03-07T03:33:33;2.30;99.90
67273;DHT22;54190;49.770;9.250;2024-03-07T03:35:59;2.20;99.90
67273;DHT22;54190;49.770;9.250;2024-03-07T03:38:25;2.30;99.90
67273;DHT22;54190;49.770;9.250;2024-03-07T03:40:50;2.30;99.90
67273;DHT22;54190;49.770;9.250;2024-03-07T03:43:16;2.30;99.90
67273;DHT22;54190;49.770;9.250;2024-03-07T03:45:42;2.30;99.90
67273;DHT22;54190;49.770;9.250;2024-03-07T03:48:07;2.20;99.90
67273;DHT22;54190;49.770;9.250;2024-03-07T03:50:34;2.30;99.90
67273;DHT22;54190;49.770;9.250;2024-03-07T03:52:59;2.30;99.90
67273;DHT22;54190;49.770;9.250;2024-03-07T03:55:27;2.20;99.90
67273;DHT22;54190;49.770;9.250;2024-03-07T03:57:53;2.20;99.90
67273;DHT22;54190;49.770;9.250;2024-03-07T04:00:18;2.10;99.90
67273;DHT22;54190;49.770;9.250;2024-03-07T04:02:48;2.10;99.90
67273;DHT22;54190;49.770;9.250;2024-03-07T04:05:15;2.00;99.90
67273;DHT22;54190;49.770;9.250;2024-03-07T04:07:41;2.00;99.90
67273;DHT22;54190;49.770;9.250;2024-03-07T04:10:08;1.90;99.90
67273;DHT22;54190;49.770;9.250;2024-03-07T04:12:43;1.80;99.90
67273;DHT22;54190;49.770;9.250;2024-03-07T04:15:11;1.90;99.90
67273;DHT22;54190;49.770;9.250;2024-03-07T04:17:38;1.80;99.90
67273;DHT22;54190;49.770;9.250;2024-03-07T04:20:05;1.80;99.90
67273;DHT22;54190;49.770;9.250;2024-03-07T04:22:32;1.70;99.90
67273;DHT22;54190;49.770;9.250;2024-03-07T04:24:58;1.60;99.90
67273;DHT22;54190;49.770;9.250;2024-03-07T04:27:24;1.60;99.90
67273;DHT22;54190;49.770;9.250;2024-03-07T04:29:52;1.60;99.90
67273;DHT22;54190;49.770;9.250;2024-03-07T04:32:17;1.60;99.90
67273;DHT22;54190;49.770;9.250;2024-03-07T04:34:46;1.60;99.90
67273;DHT22;54190;49.770;9.250;2024-03-07T04:37:11;1.60;99.90
67273;DHT22;54190;49.770;9.250;2024-03-07T04:39:40;1.60;99.90
67273;DHT22;54190;49.770;9.250;2024-03-07T04:42:07;1.60;99.90
67273;DHT22;54190;49.770;9.250;2024-03-07T04:44:35;1.60;99.90
67273;DHT22;54190;49.770;9.250;2024-03-07T04:47:05;1.60;99.90
67273;DHT22;54190;49.770;9.250;2024-03-07T04:49:32;1.60;99.90
67273;DHT22;54190;49.770;9.250;2024-03-07T04:52:00;1.60;99.90
67273;DHT22;54190;49.770;9.250;2024-03-07T04:54:27;1.50;99.90
67273;DHT22;54190;49.770;9.250;2024-03-07T04:56:53;1.50;99.90
67273;DHT22;54190;49.770;9.250;2024-03-07T04:59:19;1.50;99.90
67273;DHT22;54190;49.770;9.250;2024-03-07T05:01:46;1.40;99.90
67273;DHT22;54190;49.770;9.250;2024-03-07T05:04:13;1.40;99.90
67273;DHT22;54190;49.770;9.250;2024-03-07T05:06:39;1.40;99.90
67273;DHT22;54190;49.770;9.250;2024-03-07T05:09:06;1.20;99.90
67273;DHT22;54190;49.770;9.250;2024-03-07T05:11:33;1.20;99.90
67273;DHT22;54190;49.770;9.250;2024-03-07T05:14:00;1.20;99.90
67273;DHT22;54190;49.770;9.250;2024-03-07T05:16:27;1.30;99.90
67273;DHT22;54190;49.770;9.250;2024-03-07T05:18:52;1.30;99.90
67273;DHT22;54190;49.770;9.250;2024-03-07T05:21:19;1.30;99.90
67273;DHT22;54190;49.770;9.250;2024-03-07T05:24:07;1.30;99.90
67273;DHT22;54190;49.770;9.250;2024-03-07T05:26:37;1.30;99.90
67273;DHT22;54190;49.770;9.250;2024-03-07T05:29:04;1.40;99.90
67273;DHT22;54190;49.770;9.250;2024-03-07T05:31:37;1.40;99.90
67273;DHT22;54190;49.770;9.250;2024-03-07T05:34:03;1.50;99.90
67273;DHT22;54190;49.770;9.250;2024-03-07T05:36:32;1.50;99.90
67273;DHT22;54190;49.770;9.250;2024-03-07T05:38:58;1.50;99.90
67273;DHT22;54190;49.770;9.250;2024-03-07T05:41:25;1.50;99.90
67273;DHT22;54190;49.770;9.250;2024-03-07T05:43:53;1.60;99.90
67273;DHT22;54190;49.770;9.250;2024-03-07T05:46:19;1.60;99.90
67273;DHT22;54190;49.770;9.250;2024-03-07T05:48:45;1.60;99.90
67273;DHT22;54190;49.770;9.250;2024-03-07T05:51:15;1.60;99.90
67273;DHT22;54190;49.770;9.250;2024-03-07T05:53:41;1.60;99.90
67273;DHT22;54190;49.770;9.250;2024-03-07T05:56:07;1.60;99.90
67273;DHT22;54190;49.770;9.250;2024-03-07T05:58:33;1.60;99.90
67273;DHT22;54190;49.770;9.250;2024-03-07T06:00:59;1.60;99.90
67273;DHT22;54190;49.770;9.250;2024-03-07T06:03:25;1.50;99.90
67273;DHT22;54190;49.770;9.250;2024-03-07T06:05:51;1.50;99.90
67273;DHT22;54190;49.770;9.250;2024-03-07T06:08:18;1.50;99.90
67273;DHT22;54190;49.770;9.250;2024-03-07T06:10:44;1.60;99.90
67273;DHT22;54190;49.770;9.250;2024-03-07T06:13:15;1.60;99.90
67273;DHT22;54190;49.770;9.250;2024-03-07T06:15:43;1.60;99.90
67273;DHT22;54190;49.770;9.250;2024-03-07T06:18:09;1.60;99.90
67273;DHT22;54190;49.770;9.250;2024-03-07T06:20:42;1.70;99.90
67273;DHT22;54190;49.770;9.250;2024-03-07T06:23:08;1.70;99.90
67273;DHT22;54190;49.770;9.250;2024-03-07T06:25:35;1.70;99.90
67273;DHT22;54190;49.770;9.250;2024-03-07T06:28:01;1.60;99.90
67273;DHT22;54190;49.770;9.250;2024-03-07T06:30:35;1.60;99.90
67273;DHT22;54190;49.770;9.250;2024-03-07T06:33:01;1.60;99.90
67273;DHT22;54190;49.770;9.250;2024-03-07T06:35:27;1.60;99.90
67273;DHT22;54190;49.770;9.250;2024-03-07T06:37:52;1.60;99.90
67273;DHT22;54190;49.770;9.250;2024-03-07T06:40:18;1.60;99.90
67273;DHT22;54190;49.770;9.250;2024-03-07T06:42:48;1.60;99.90
67273;DHT22;54190;49.770;9.250;2024-03-07T06:45:13;1.60;99.90
67273;DHT22;54190;49.770;9.250;2024-03-07T06:47:39;1.70;99.90
67273;DHT22;54190;49.770;9.250;2024-03-07T06:50:05;1.60;99.90
67273;DHT22;54190;49.770;9.250;2024-03-07T06:52:34;1.60;99.90
67273;DHT22;54190;49.770;9.250;2024-03-07T06:55:03;1.70;99.90
67273;DHT22;54190;49.770;9.250;2024-03-07T06:57:33;1.70;99.90
67273;DHT22;54190;49.770;9.250;2024-03-07T07:00:02;1.80;99.90
67273;DHT22;54190;49.770;9.250;2024-03-07T07:02:40;2.00;99.90
67273;DHT22;54190;49.770;9.250;2024-03-07T07:05:07;2.00;99.90
67273;DHT22;54190;49.770;9.250;2024-03-07T07:07:40;2.10;99.90
67273;DHT22;54190;49.770;9.250;2024-03-07T07:10:09;2.10;99.90
67273;DHT22;54190;49.770;9.250;2024-03-07T07:12:42;2.10;99.90
67273;DHT22;54190;49.770;9.250;2024-03-07T07:15:09;2.20;99.90
67273;DHT22;54190;49.770;9.250;2024-03-07T07:17:36;2.30;99.90
67273;DHT22;54190;49.770;9.250;2024-03-07T07:20:01;2.30;99.90
67273;DHT22;54190;49.770;9.250;2024-03-07T07:22:35;2.50;99.90
67273;DHT22;54190;49.770;9.250;2024-03-07T07:25:00;2.60;99.90
67273;DHT22;54190;49.770;9.250;2024-03-07T07:27:26;2.70;99.90
67273;DHT22;54190;49.770;9.250;2024-03-07T07:29:51;2.70;99.90
67273;DHT22;54190;49.770;9.250;2024-03-07T07:32:17;2.80;99.90
67273;DHT22;54190;49.770;9.250;2024-03-07T07:34:43;2.80;99.90
67273;DHT22;54190;49.770;9.250;2024-03-07T07:37:08;2.90;99.90
67273;DHT22;54190;49.770;9.250;2024-03-07T07:39:35;2.90;99.90
67273;DHT22;54190;49.770;9.250;2024-03-07T07:42:00;3.00;99.90
67273;DHT22;54190;49.770;9.250;2024-03-07T07:44:26;3.00;99.90
67273;DHT22;54190;49.770;9.250;2024-03-07T07:46:52;3.10;99.90
67273;DHT22;54190;49.770;9.250;2024-03-07T07:49:17;3.20;99.90
67273;DHT22;54190;49.770;9.250;2024-03-07T07:51:45;3.30;99.90
67273;DHT22;54190;49.770;9.250;2024-03-07T07:54:11;3.40;99.90
67273;DHT22;54190;49.770;9.250;2024-03-07T07:56:36;3.50;99.90
67273;DHT22;54190;49.770;9.250;2024-03-07T07:59:02;3.60;99.90
67273;DHT22;54190;49.770;9.250;2024-03-07T08:01:33;3.60;99.90
67273;DHT22;54190;49.770;9.250;2024-03-07T08:03:59;3.70;99.90
67273;DHT22;54190;49.770;9.250;2024-03-07T08:06:25;3.70;99.90
67273;DHT22;54190;49.770;9.250;2024-03-07T08:08:50;3.80;99.90
67273;DHT22;54190;49.770;9.250;2024-03-07T08:11:17;3.80;99.90
67273;DHT22;54190;49.770;9.250;2024-03-07T08:13:42;3.80;99.90
67273;DHT22;54190;49.770;9.250;2024-03-07T08:16:10;3.80;99.90
67273;DHT22;54190;49.770;9.250;2024-03-07T08:18:36;3.90;99.90
67273;DHT22;54190;49.770;9.250;2024-03-07T08:21:02;3.90;99.90
67273;DHT22;54190;49.770;9.250;2024-03-07T08:23:28;3.90;99.90
67273;DHT22;54190;49.770;9.250;2024-03-07T08:25:55;4.00;99.90
67273;DHT22;54190;49.770;9.250;2024-03-07T08:28:21;4.00;99.90
67273;DHT22;54190;49.770;9.250;2024-03-07T08:30:46;4.10;99.90
67273;DHT22;54190;49.770;9.250;2024-03-07T08:33:12;4.10;99.90
67273;DHT22;54190;49.770;9.250;2024-03-07T08:35:39;4.20;99.90
67273;DHT22;54190;49.770;9.250;2024-03-07T08:38:05;4.20;99.90
67273;DHT22;54190;49.770;9.250;2024-03-07T08:40:31;4.20;99.90
67273;DHT22;54190;49.770;9.250;2024-03-07T08:42:58;4.30;99.90
67273;DHT22;54190;49.770;9.250;2024-03-07T08:45:25;4.40;99.90
67273;DHT22;54190;49.770;9.250;2024-03-07T08:47:52;4.40;99.90
67273;DHT22;54190;49.770;9.250;2024-03-07T08:50:20;4.40;99.90
67273;DHT22;54190;49.770;9.250;2024-03-07T08:52:46;4.40;99.90
67273;DHT22;54190;49.770;9.250;2024-03-07T08:55:20;4.30;99.90
67273;DHT22;54190;49.770;9.250;2024-03-07T08:57:46;4.30;99.90
67273;DHT22;54190;49.770;9.250;2024-03-07T09:00:13;4.40;99.90
67273;DHT22;54190;49.770;9.250;2024-03-07T09:02:59;4.40;99.90
67273;DHT22;54190;49.770;9.250;2024-03-07T09:05:26;4.40;99.90
67273;DHT22;54190;49.770;9.250;2024-03-07T09:07:53;4.40;99.90
67273;DHT22;54190;49.770;9.250;2024-03-07T09:10:19;4.40;99.90
67273;DHT22;54190;49.770;9.250;2024-03-07T09:12:46;4.50;99.90
67273;DHT22;54190;49.770;9.250;2024-03-07T09:15:15;4.50;99.90
67273;DHT22;54190;49.770;9.250;2024-03-07T09:17:42;4.60;99.90
67273;DHT22;54190;49.770;9.250;2024-03-07T09:20:09;4.60;99.90
67273;DHT22;54190;49.770;9.250;2024-03-07T09:22:43;4.70;99.90
67273;DHT22;54190;49.770;9.250;2024-03-07T09:25:10;4.80;99.90
67273;DHT22;54190;49.770;9.250;2024-03-07T09:27:36;4.80;99.90
67273;DHT22;54190;49.770;9.250;2024-03-07T09:30:04;4.90;99.90
67273;DHT22;54190;49.770;9.250;2024-03-07T09:32:30;4.80;99.90
67273;DHT22;54190;49.770;9.250;2024-03-07T09:34:58;4.90;99.90
67273;DHT22;54190;49.770;9.250;2024-03-07T09:37:25;5.00;99.90
67273;DHT22;54190;49.770;9.250;2024-03-07T09:39:51;5.00;99.90
67273;DHT22;54190;49.770;9.250;2024-03-07T09:42:17;5.00;99.90
67273;DHT22;54190;49.770;9.250;2024-03-07T09:44:45;5.10;99.90
67273;DHT22;54190;49.770;9.250;2024-03-07T09:47:13;5.20;99.90
67273;DHT22;54190;49.770;9.250;2024-03-07T09:49:39;5.20;99.90
67273;DHT22;54190;49.770;9.250;2024-03-07T09:52:07;5.30;99.90
67273;DHT22;54190;49.770;9.250;2024-03-07T09:54:37;5.20;99.90
67273;DHT22;54190;49.770;9.250;2024-03-07T09:57:05;5.30;99.90
67273;DHT22;54190;49.770;9.250;2024-03-07T09:59:35;5.30;99.90
67273;DHT22;54190;49.770;9.250;2024-03-07T10:02:06;5.40;99.90
67273;DHT22;54190;49.770;9.250;2024-03-07T10:04:48;5.40;99.90
67273;DHT22;54190;49.770;9.250;2024-03-07T10:07:18;5.50;99.90
67273;DHT22;54190;49.770;9.250;2024-03-07T10:09:44;5.60;99.90
67273;DHT22;54190;49.770;9.250;2024-03-07T10:12:10;5.50;99.90
67273;DHT22;54190;49.770;9.250;2024-03-07T10:14:58;5.60;99.90
67273;DHT22;54190;49.770;9.250;2024-03-07T10:17:31;5.60;99.90
67273;DHT22;54190;49.770;9.250;2024-03-07T10:19:58;5.60;99.90
67273;DHT22;54190;49.770;9.250;2024-03-07T10:22:26;5.80;99.90
67273;DHT22;54190;49.770;9.250;2024-03-07T10:24:56;5.90;99.90
67273;DHT22;54190;49.770;9.250;2024-03-07T10:27:22;6.10;99.90
67273;DHT22;54190;49.770;9.250;2024-03-07T10:29:52;6.20;99.90
67273;DHT22;54190;49.770;9.250;2024-03-07T10:32:22;6.40;99.90
67273;DHT22;54190;49.770;9.250;2024-03-07T10:34:50;6.30;99.90
67273;DHT22;54190;49.770;9.250;2024-03-07T10:37:16;6.50;99.90
67273;DHT22;54190;49.770;9.250;2024-03-07T10:39:44;6.60;99.90
67273;DHT22;54190;49.770;9.250;2024-03-07T10:42:13;6.60;99.90
67273;DHT22;54190;49.770;9.250;2024-03-07T10:44:43;6.70;99.90
67273;DHT22;54190;49.770;9.250;2024-03-07T10:47:20;6.80;99.90
67273;DHT22;54190;49.770;9.250;2024-03-07T10:52:57;7.20;99.90
67273;DHT22;54190;49.770;9.250;2024-03-07T10:55:44;7.30;99.90
67273;DHT22;54190;49.770;9.250;2024-03-07T11:09:43;8.00;99.90
67273;DHT22;54190;49.770;9.250;2024-03-07T11:12:12;8.10;99.90
67273;DHT22;54190;49.770;9.250;2024-03-07T11:14:39;8.20;99.90
67273;DHT22;54190;49.770;9.250;2024-03-07T11:17:06;8.20;99.90
67273;DHT22;54190;49.770;9.250;2024-03-07T11:19:34;8.30;99.90
67273;DHT22;54190;49.770;9.250;2024-03-07T11:22:02;8.30;99.90
67273;DHT22;54190;49.770;9.250;2024-03-07T11:24:41;8.30;99.90
67273;DHT22;54190;49.770;9.250;2024-03-07T11:27:09;8.30;99.90
67273;DHT22;54190;49.770;9.250;2024-03-07T11:29:47;8.30;99.90
67273;DHT22;54190;49.770;9.250;2024-03-07T11:32:14;8.30;99.90
67273;DHT22;54190;49.770;9.250;2024-03-07T11:34:41;8.30;99.90
67273;DHT22;54190;49.770;9.250;2024-03-07T11:37:08;8.20;99.90
67273;DHT22;54190;49.770;9.250;2024-03-07T11:39:52;8.30;99.90
67273;DHT22;54190;49.770;9.250;2024-03-07T11:42:29;8.30;99.90
67273;DHT22;54190;49.770;9.250;2024-03-07T11:44:59;8.50;99.90
67273;DHT22;54190;49.770;9.250;2024-03-07T11:47:27;8.50;99.90
67273;DHT22;54190;49.770;9.250;2024-03-07T11:50:01;8.70;99.90
67273;DHT22;54190;49.770;9.250;2024-03-07T11:52:28;8.70;99.90
67273;DHT22;54190;49.770;9.250;2024-03-07T11:54:53;8.70;99.90
67273;DHT22;54190;49.770;9.250;2024-03-07T11:57:28;8.80;99.90
67273;DHT22;54190;49.770;9.250;2024-03-07T12:00:02;9.00;99.90
67273;DHT22;54190;49.770;9.250;2024-03-07T12:02:38;9.00;99.90
67273;DHT22;54190;49.770;9.250;2024-03-07T12:05:05;9.20;99.90
67273;DHT22;54190;49.770;9.250;2024-03-07T12:07:31;9.40;99.90
67273;DHT22;54190;49.770;9.250;2024-03-07T12:09:57;9.40;99.90
67273;DHT22;54190;49.770;9.250;2024-03-07T12:12:23;9.40;99.90
67273;DHT22;54190;49.770;9.250;2024-03-07T12:14:50;9.40;99.90
67273;DHT22;54190;49.770;9.250;2024-03-07T12:17:18;9.60;99.90
67273;DHT22;54190;49.770;9.250;2024-03-07T12:19:44;9.60;99.90
67273;DHT22;54190;49.770;9.250;2024-03-07T12:22:12;9.60;99.90
67273;DHT22;54190;49.770;9.250;2024-03-07T12:24:41;9.40;99.90
67273;DHT22;54190;49.770;9.250;2024-03-07T12:27:12;9.40;99.90
67273;DHT22;54190;49.770;9.250;2024-03-07T12:29:39;9.60;99.90
67273;DHT22;54190;49.770;9.250;2024-03-07T12:32:06;9.70;99.90
67273;DHT22;54190;49.770;9.250;2024-03-07T12:34:36;9.90;99.90
67273;DHT22;54190;49.770;9.250;2024-03-07T12:37:12;10.00;99.90
67273;DHT22;54190;49.770;9.250;2024-03-07T12:39:42;9.90;99.90
67273;DHT22;54190;49.770;9.250;2024-03-07T12:42:13;9.90;99.90
67273;DHT22;54190;49.770;9.250;2024-03-07T12:44:43;9.80;99.90
67273;DHT22;54190;49.770;9.250;2024-03-07T12:47:15;9.80;99.90
67273;DHT22;54190;49.770;9.250;2024-03-07T12:49:41;9.90;99.90
67273;DHT22;54190;49.770;9.250;2024-03-07T12:52:08;10.10;99.90
67273;DHT22;54190;49.770;9.250;2024-03-07T12:54:34;10.20;99.80
67273;DHT22;54190;49.770;9.250;2024-03-07T12:57:02;10.30;99.90
67273;DHT22;54190;49.770;9.250;2024-03-07T12:59:31;10.30;99.90
67273;DHT22;54190;49.770;9.250;2024-03-07T13:01:56;10.20;99.10
67273;DHT22;54190;49.770;9.250;2024-03-07T13:04:22;10.10;99.00
67273;DHT22;54190;49.770;9.250;2024-03-07T13:06:51;10.00;99.90
67273;DHT22;54190;49.770;9.250;2024-03-07T13:09:16;9.90;98.80
67273;DHT22;54190;49.770;9.250;2024-03-07T13:11:53;9.70;99.30
67273;DHT22;54190;49.770;9.250;2024-03-07T13:14:19;9.50;99.60
67273;DHT22;54190;49.770;9.250;2024-03-07T13:16:44;9.60;99.90
67273;DHT22;54190;49.770;9.250;2024-03-07T13:19:10;9.80;99.90
67273;DHT22;54190;49.770;9.250;2024-03-07T13:21:38;9.70;99.40
67273;DHT22;54190;49.770;9.250;2024-03-07T13:24:05;9.60;99.70
67273;DHT22;54190;49.770;9.250;2024-03-07T13:26:31;9.60;99.90
67273;DHT22;54190;49.770;9.250;2024-03-07T13:28:57;9.50;99.90
67273;DHT22;54190;49.770;9.250;2024-03-07T13:31:27;9.50;99.70
67273;DHT22;54190;49.770;9.250;2024-03-07T13:33:54;9.50;99.50
67273;DHT22;54190;49.770;9.250;2024-03-07T13:36:20;9.50;99.70
67273;DHT22;54190;49.770;9.250;2024-03-07T13:38:53;9.30;99.90
67273;DHT22;54190;49.770;9.250;2024-03-07T13:41:22;9.10;99.90
67273;DHT22;54190;49.770;9.250;2024-03-07T13:43:48;9.20;99.90
67273;DHT22;54190;49.770;9.250;2024-03-07T13:46:15;9.20;99.90
67273;DHT22;54190;49.770;9.250;2024-03-07T13:48:46;9.20;99.90
67273;DHT22;54190;49.770;9.250;2024-03-07T13:51:12;9.20;99.90
67273;DHT22;54190;49.770;9.250;2024-03-07T13:53:40;9.30;99.90
67273;DHT22;54190;49.770;9.250;2024-03-07T13:56:47;9.30;99.90
67273;DHT22;54190;49.770;9.250;2024-03-07T14:21:06;8.30;99.90
67273;DHT22;54190;49.770;9.250;2024-03-07T14:31:42;8.30;99.90
67273;DHT22;54190;49.770;9.250;2024-03-07T14:34:14;8.20;99.90
67273;DHT22;54190;49.770;9.250;2024-03-07T14:36:57;8.30;99.90
67273;DHT22;54190;49.770;9.250;2024-03-07T14:39:27;8.40;99.90
67273;DHT22;54190;49.770;9.250;2024-03-07T14:41:58;8.30;99.90
67273;DHT22;54190;49.770;9.250;2024-03-07T14:44:27;8.30;99.90
67273;DHT22;54190;49.770;9.250;2024-03-07T14:47:00;8.30;99.90
67273;DHT22;54190;49.770;9.250;2024-03-07T14:49:31;8.40;99.90
67273;DHT22;54190;49.770;9.250;2024-03-07T14:51:57;8.40;99.90
67273;DHT22;54190;49.770;9.250;2024-03-07T14:54:23;8.40;99.90
67273;DHT22;54190;49.770;9.250;2024-03-07T14:56:49;8.30;99.90
67273;DHT22;54190;49.770;9.250;2024-03-07T14:59:15;8.40;99.90
67273;DHT22;54190;49.770;9.250;2024-03-07T15:01:41;8.40;99.90
67273;DHT22;54190;49.770;9.250;2024-03-07T15:04:08;8.30;99.90
67273;DHT22;54190;49.770;9.250;2024-03-07T15:06:38;8.20;99.90
67273;DHT22;54190;49.770;9.250;2024-03-07T15:09:03;8.10;99.90
67273;DHT22;54190;49.770;9.250;2024-03-07T15:11:36;8.00;99.90
67273;DHT22;54190;49.770;9.250;2024-03-07T15:14:03;8.00;99.90
67273;DHT22;54190;49.770;9.250;2024-03-07T15:16:38;8.00;99.90
67273;DHT22;54190;49.770;9.250;2024-03-07T15:19:05;8.00;99.90
67273;DHT22;54190;49.770;9.250;2024-03-07T15:21:31;8.00;99.90
67273;DHT22;54190;49.770;9.250;2024-03-07T15:23:58;8.00;99.90
67273;DHT22;54190;49.770;9.250;2024-03-07T15:26:24;8.10;99.90
67273;DHT22;54190;49.770;9.250;2024-03-07T15:28:51;8.10;99.90
67273;DHT22;54190;49.770;9.250;2024-03-07T15:31:16;8.10;99.90
67273;DHT22;54190;49.770;9.250;2024-03-07T15:33:46;8.10;99.90
67273;DHT22;54190;49.770;9.250;2024-03-07T15:36:15;8.20;99.90
67273;DHT22;54190;49.770;9.250;2024-03-07T15:38:41;8.10;99.90
67273;DHT22;54190;49.770;9.250;2024-03-07T15:41:07;8.10;99.90
67273;DHT22;54190;49.770;9.250;2024-03-07T15:43:36;8.10;99.90
67273;DHT22;54190;49.770;9.250;2024-03-07T15:46:02;8.10;99.90
67273;DHT22;54190;49.770;9.250;2024-03-07T15:48:29;8.00;99.90
67273;DHT22;54190;49.770;9.250;2024-03-07T15:50:56;8.00;99.90
67273;DHT22;54190;49.770;9.250;2024-03-07T15:53:25;8.00;99.90
67273;DHT22;54190;49.770;9.250;2024-03-07T15:55:51;7.90;99.90
67273;DHT22;54190;49.770;9.250;2024-03-07T15:58:16;7.90;99.90
67273;DHT22;54190;49.770;9.250;2024-03-07T16:00:45;7.90;99.90
67273;DHT22;54190;49.770;9.250;2024-03-07T16:03:13;7.90;99.90
67273;DHT22;54190;49.770;9.250;2024-03-07T16:05:42;7.90;99.90
67273;DHT22;54190;49.770;9.250;2024-03-07T16:08:14;7.90;99.90
67273;DHT22;54190;49.770;9.250;2024-03-07T16:10:44;7.90;99.90
67273;DHT22;54190;49.770;9.250;2024-03-07T16:13:12;7.90;99.90
67273;DHT22;54190;49.770;9.250;2024-03-07T16:15:44;7.80;99.70
67273;DHT22;54190;49.770;9.250;2024-03-07T16:18:19;7.70;99.90
67273;DHT22;54190;49.770;9.250;2024-03-07T16:20:49;7.60;99.90
67273;DHT22;54190;49.770;9.250;2024-03-07T16:23:15;7.60;99.90
67273;DHT22;54190;49.770;9.250;2024-03-07T16:25:41;7.60;99.90
67273;DHT22;54190;49.770;9.250;2024-03-07T16:28:08;7.50;99.90
67273;DHT22;54190;49.770;9.250;2024-03-07T16:30:36;7.50;99.90
67273;DHT22;54190;49.770;9.250;2024-03-07T16:33:03;7.50;99.90